Terminal Aerodrome Forecast
Issued by NWS Duluth, MN

Home | Current Version | Previous Version | Text Only | Print | Product List | Glossary Off
Versions: 1 2 3 4 5 6 7 8 9 10 11 12 13 14 15 16 17 18 19 20 21 22 23

006
FTUS43 KDLH 171732
TAFINL
TAF
KINL 171732Z 1718/1818 23008KT 5SM BR VCSH OVC014
     FM172100 25006KT 6SM BR BKN019
     FM172200 29006KT P6SM SCT020 BKN040
     FM180400 32006KT P6SM SCT015 BKN100
     FM181000 31007KT P6SM BKN025
     FM181600 30010G17KT P6SM BKN025=

USA.gov is the U.S. government's official web portal to all federal, state and local government web resources and services.